Paris, France
Current Conditions -  °F | °C
As of 6:30 AM on Thursday 23 Oct 2014 (Local Time) from LFPB Reporting Station
Overcast Overcast  
Wind Chill: 11°   Ceiling: 3000
Heat Index: 11°   Visibility: 6mi
Dew Point: 10°   Wind: 3mph
Humidity: 94%   Direction: 240°WSW
Pressure: 30.27"   Gusts: NA
Location:  48.86°N, 2.35°E
Report Text: LFPB 230430Z AUTO 24003KT 9999 OVC030 11/10 Q1025
Loading
Personal Weather Stations






























Interactive Weather Map
Tropical Storm Tracking
New forecast layout! Learn more

10-Day Weather Forecast

Advertisements
Track Severe Weather on mobile